Time;durP1;ratioP1;P1;durP2;ratioP2;P2;SDS_P1;SDS_P2;PMS_P1;PMS_P2;Temp;Humidity;BMP_temperature;BMP_pressure;BME280_temperature;BME280_humidity;BME280_pressure;Samples;Min_cycle;Max_cycle;Signal;HPM_P1;HPM_P2
2021/08/27 00:00:17;;;;;;;8.50;6.20;;;16.00;99.90;;;;;;6353138;28;20479;-66
2021/08/27 00:03:20;;;;;;;8.20;6.00;;;16.00;99.90;;;;;;6353292;28;20807;-66
2021/08/27 00:06:24;;;;;;;8.57;5.80;;;15.90;99.90;;;;;;6353104;28;20467;-68
2021/08/27 00:09:28;;;;;;;6.70;5.77;;;15.80;99.90;;;;;;6353413;28;20475;-67
2021/08/27 00:12:31;;;;;;;6.10;5.53;;;15.70;99.90;;;;;;6353109;28;20794;-69
2021/08/27 00:15:36;;;;;;;6.13;5.07;;;15.60;99.90;;;;;;6343515;28;20474;-67
2021/08/27 00:18:39;;;;;;;6.97;5.57;;;15.60;99.90;;;;;;6353121;28;20479;-67
2021/08/27 00:21:42;;;;;;;6.03;5.50;;;15.60;99.90;;;;;;6352547;28;21041;-67
2021/08/27 00:24:46;;;;;;;6.97;6.27;;;15.50;99.90;;;;;;6353066;28;20490;-68
2021/08/27 00:27:49;;;;;;;6.10;5.60;;;15.30;99.90;;;;;;6352324;28;20472;-68
2021/08/27 00:30:57;;;;;;;7.33;5.47;;;15.20;99.90;;;;;;6352026;27;20486;-69
2021/08/27 00:34:00;;;;;;;6.53;5.13;;;15.10;99.90;;;;;;6352510;28;20464;-68
2021/08/27 00:37:04;;;;;;;5.97;5.33;;;15.10;99.90;;;;;;6352473;28;20868;-68
2021/08/27 00:40:09;;;;;;;6.00;5.43;;;15.10;99.90;;;;;;6352220;28;20995;-68
2021/08/27 00:43:13;;;;;;;6.00;5.50;;;15.20;99.90;;;;;;6352425;28;20474;-68
2021/08/27 00:46:17;;;;;;;5.63;5.23;;;15.20;99.90;;;;;;6352179;27;21268;-68
2021/08/27 00:49:20;;;;;;;6.63;6.10;;;15.30;99.90;;;;;;6352318;28;20474;-68
2021/08/27 00:52:24;;;;;;;5.43;4.90;;;15.30;99.90;;;;;;6351904;28;20991;-68
2021/08/27 00:55:27;;;;;;;6.70;6.10;;;15.30;99.90;;;;;;6352107;27;20472;-69
2021/08/27 00:58:31;;;;;;;6.57;5.97;;;15.20;99.90;;;;;;6351583;28;20467;-68
2021/08/27 01:01:35;;;;;;;5.70;5.20;;;15.20;99.90;;;;;;6351881;28;20471;-68
2021/08/27 01:04:40;;;;;;;7.90;5.80;;;15.20;99.90;;;;;;6351920;28;20482;-68
2021/08/27 01:07:53;;;;;;;7.90;5.50;;;15.30;99.90;;;;;;6351638;28;20475;-69
2021/08/27 01:11:03;;;;;;;5.83;5.20;;;15.30;99.90;;;;;;6346814;28;20460;-68
2021/08/27 01:14:10;;;;;;;5.80;5.20;;;15.20;99.90;;;;;;6334379;28;20488;-69
2021/08/27 01:17:20;;;;;;;6.30;5.80;;;15.20;99.90;;;;;;6337782;28;20468;-68
2021/08/27 01:20:48;;;;;;;5.70;4.73;;;15.20;99.90;;;;;;6331791;28;20471;-68
2021/08/27 01:23:54;;;;;;;5.50;5.00;;;15.30;99.90;;;;;;6336534;28;20837;-69
2021/08/27 01:27:04;;;;;;;5.93;5.40;;;15.40;99.90;;;;;;6335357;28;20441;-68
2021/08/27 01:30:12;;;;;;;6.53;5.47;;;15.30;99.90;;;;;;6337335;28;20463;-68
2021/08/27 01:33:20;;;;;;;6.10;5.47;;;15.30;99.90;;;;;;6334830;28;20949;-68
2021/08/27 01:36:26;;;;;;;6.67;5.97;;;15.30;99.90;;;;;;6337638;28;20478;-68
2021/08/27 01:39:33;;;;;;;6.93;6.33;;;15.30;99.90;;;;;;6338959;28;20468;-69
2021/08/27 01:42:38;;;;;;;8.53;7.17;;;15.20;99.90;;;;;;6333413;28;20464;-70
2021/08/27 01:45:43;;;;;;;7.30;6.47;;;15.10;99.90;;;;;;6337786;28;20779;-68
2021/08/27 01:48:47;;;;;;;6.40;5.50;;;15.00;99.90;;;;;;6338182;28;20468;-68
2021/08/27 01:51:53;;;;;;;6.30;5.70;;;14.90;99.90;;;;;;6336442;28;20474;-68
2021/08/27 01:54:58;;;;;;;6.90;6.20;;;14.80;99.90;;;;;;6332177;28;20479;-68
2021/08/27 01:58:02;;;;;;;7.77;6.67;;;14.70;99.90;;;;;;6333849;28;20517;-67
2021/08/27 02:01:06;;;;;;;7.03;6.33;;;14.60;99.90;;;;;;6337412;28;20472;-66
2021/08/27 02:04:12;;;;;;;8.00;7.30;;;14.50;99.90;;;;;;6338501;28;20456;-67
2021/08/27 02:07:17;;;;;;;7.60;6.70;;;14.40;99.90;;;;;;6335775;28;20484;-66
2021/08/27 02:10:20;;;;;;;6.83;6.13;;;14.20;99.90;;;;;;6334594;28;20973;-66
2021/08/27 02:13:24;;;;;;;6.90;5.80;;;14.20;99.90;;;;;;6336903;28;20478;-65
2021/08/27 02:16:28;;;;;;;7.87;7.10;;;14.30;99.90;;;;;;6337976;27;20463;-67
2021/08/27 02:19:31;;;;;;;8.30;7.60;;;14.20;99.90;;;;;;6335010;28;20456;-66
2021/08/27 02:22:37;;;;;;;10.53;6.13;;;14.30;99.90;;;;;;6337008;28;20488;-66
2021/08/27 02:25:45;;;;;;;7.40;6.33;;;14.40;99.90;;;;;;6326191;28;20509;-66
2021/08/27 02:28:50;;;;;;;7.73;6.93;;;14.40;99.90;;;;;;6333140;28;20483;-66
2021/08/27 02:31:59;;;;;;;6.30;5.70;;;14.50;99.90;;;;;;6336669;28;20463;-67
2021/08/27 02:35:04;;;;;;;8.30;7.40;;;14.40;99.90;;;;;;6337534;28;21088;-66
2021/08/27 02:38:13;;;;;;;8.37;6.50;;;14.20;99.90;;;;;;6333309;28;20468;-65
2021/08/27 02:41:16;;;;;;;7.87;5.60;;;14.10;99.90;;;;;;6335862;28;20521;-66
2021/08/27 02:44:19;;;;;;;6.43;5.83;;;14.10;99.90;;;;;;6337149;28;20468;-66
2021/08/27 02:47:22;;;;;;;7.80;6.73;;;14.10;99.90;;;;;;6334803;28;20459;-67
2021/08/27 02:50:26;;;;;;;6.63;6.03;;;14.20;99.90;;;;;;6332764;28;20465;-66
2021/08/27 02:53:34;;;;;;;8.17;6.97;;;14.10;99.90;;;;;;6335414;28;20463;-66
2021/08/27 02:56:40;;;;;;;8.87;6.90;;;14.10;99.90;;;;;;6325330;28;20472;-66
2021/08/27 02:59:45;;;;;;;7.50;5.70;;;14.10;99.90;;;;;;6342516;28;20467;-66
2021/08/27 03:02:48;;;;;;;7.43;6.23;;;14.00;99.90;;;;;;6329072;28;20484;-66
2021/08/27 03:05:57;;;;;;;6.03;5.50;;;14.00;99.90;;;;;;6324194;28;20450;-66
2021/08/27 03:09:08;;;;;;;7.43;6.70;;;14.00;99.90;;;;;;6324145;28;20464;-67
2021/08/27 03:12:14;;;;;;;7.50;6.40;;;14.00;99.90;;;;;;6324409;28;20464;-66
2021/08/27 03:15:26;;;;;;;10.13;7.40;;;14.10;99.90;;;;;;6324188;28;20461;-66
2021/08/27 03:18:38;;;;;;;8.10;7.33;;;14.10;99.90;;;;;;6324223;28;20479;-65
2021/08/27 03:21:47;;;;;;;10.13;7.67;;;14.10;99.90;;;;;;6323777;28;20821;-65
2021/08/27 03:24:59;;;;;;;8.60;7.80;;;14.10;99.90;;;;;;6323968;28;20479;-65
2021/08/27 03:28:06;;;;;;;10.00;7.80;;;14.10;99.90;;;;;;6314184;28;20472;-64
2021/08/27 03:31:10;;;;;;;7.80;7.00;;;14.30;99.90;;;;;;6322826;28;20468;-65
2021/08/27 03:34:14;;;;;;;7.53;6.80;;;14.40;99.90;;;;;;6323923;28;20551;-65
2021/08/27 03:37:18;;;;;;;6.43;5.80;;;14.50;99.90;;;;;;6323624;28;20469;-60
2021/08/27 03:40:25;;;;;;;6.53;5.93;;;14.50;99.90;;;;;;6323372;28;21011;-60
2021/08/27 03:43:28;;;;;;;9.83;6.50;;;14.60;99.90;;;;;;6323598;28;20533;-67
2021/08/27 03:46:32;;;;;;;7.70;6.40;;;14.60;99.90;;;;;;6323412;28;20475;-67
2021/08/27 03:49:35;;;;;;;10.50;7.67;;;14.60;99.90;;;;;;6327676;28;20803;-67
2021/08/27 03:52:41;;;;;;;7.87;7.07;;;14.70;99.90;;;;;;6348453;28;20466;-65
2021/08/27 03:55:49;;;;;;;8.60;7.73;;;14.70;99.90;;;;;;6339913;28;20464;-65
2021/08/27 03:58:53;;;;;;;6.13;5.53;;;14.70;99.90;;;;;;6332444;28;20475;-65
2021/08/27 04:01:57;;;;;;;6.77;5.83;;;14.70;99.90;;;;;;6335584;28;20530;-66
2021/08/27 04:05:12;;;;;;;6.83;6.13;;;14.80;99.90;;;;;;6336489;28;20471;-65
2021/08/27 04:08:15;;;;;;;10.70;7.10;;;14.80;99.90;;;;;;6337819;27;20974;-65
2021/08/27 04:11:20;;;;;;;7.20;6.60;;;14.70;99.90;;;;;;6350028;28;20466;-65
2021/08/27 04:14:23;;;;;;;8.87;5.60;;;14.50;99.90;;;;;;6353162;28;20467;-65
2021/08/27 04:17:27;;;;;;;7.10;6.40;;;14.50;99.90;;;;;;6352626;28;20945;-65
2021/08/27 04:20:30;;;;;;;6.27;5.67;;;14.50;99.90;;;;;;6353015;28;20464;-67
2021/08/27 04:23:33;;;;;;;7.43;6.77;;;14.40;99.90;;;;;;6352478;28;20483;-67
2021/08/27 04:26:41;;;;;;;6.33;5.73;;;14.30;99.90;;;;;;6353218;28;20542;-64
2021/08/27 04:29:44;;;;;;;8.60;7.53;;;14.20;99.90;;;;;;6348044;28;20443;-63
2021/08/27 04:32:48;;;;;;;8.10;7.30;;;14.20;99.90;;;;;;6352620;27;20900;-64
2021/08/27 04:35:51;;;;;;;7.37;6.77;;;14.20;99.90;;;;;;6352450;27;20447;-64
2021/08/27 04:38:54;;;;;;;8.20;7.37;;;14.30;99.90;;;;;;6352170;28;20455;-63
2021/08/27 04:42:00;;;;;;;7.50;6.80;;;14.30;99.90;;;;;;6352779;28;20431;-60
2021/08/27 04:45:03;;;;;;;7.17;6.50;;;14.40;99.90;;;;;;6351922;28;20458;-63
2021/08/27 04:48:07;;;;;;;8.27;7.53;;;14.50;99.90;;;;;;6352483;28;20471;-60
2021/08/27 04:51:10;;;;;;;6.90;6.10;;;14.60;99.90;;;;;;6351906;28;20466;-59
2021/08/27 04:54:13;;;;;;;8.33;6.80;;;14.70;99.90;;;;;;6352048;28;20574;-60
2021/08/27 04:57:18;;;;;;;8.30;7.13;;;14.70;99.90;;;;;;6351764;28;20964;-60
2021/08/27 05:00:21;;;;;;;7.70;6.93;;;14.70;99.90;;;;;;6351918;28;20471;-59
2021/08/27 05:03:24;;;;;;;8.00;7.20;;;14.80;99.90;;;;;;6351535;28;20481;-65
2021/08/27 05:06:27;;;;;;;7.70;7.00;;;14.80;99.90;;;;;;6352015;27;20464;-64
2021/08/27 05:09:31;;;;;;;7.40;6.73;;;14.80;99.90;;;;;;6351612;27;20801;-65
2021/08/27 05:12:37;;;;;;;7.40;6.70;;;15.00;99.90;;;;;;6351824;27;20471;-65
2021/08/27 05:15:40;;;;;;;8.23;6.60;;;15.00;99.90;;;;;;6351191;28;20478;-65
2021/08/27 05:18:43;;;;;;;8.43;7.10;;;15.10;99.90;;;;;;6351556;27;20478;-65
2021/08/27 05:21:46;;;;;;;9.70;7.40;;;15.00;99.90;;;;;;6351308;28;20467;-65
2021/08/27 05:24:49;;;;;;;8.90;7.47;;;14.90;99.90;;;;;;6351338;28;20467;-66
2021/08/27 05:27:54;;;;;;;6.50;5.90;;;15.00;99.90;;;;;;6351281;28;20475;-66
2021/08/27 05:30:57;;;;;;;7.40;6.70;;;15.10;99.90;;;;;;6350694;28;20801;-65
2021/08/27 05:34:00;;;;;;;7.90;7.10;;;15.20;99.90;;;;;;6351111;27;20971;-65
2021/08/27 05:37:04;;;;;;;7.47;6.87;;;15.30;99.90;;;;;;6346081;28;20490;-65
2021/08/27 05:40:09;;;;;;;8.93;7.87;;;15.30;99.90;;;;;;6350877;28;20972;-66
2021/08/27 05:43:14;;;;;;;8.67;7.93;;;15.30;99.90;;;;;;6350958;28;20697;-65
2021/08/27 05:46:21;;;;;;;8.60;7.70;;;15.30;99.90;;;;;;6351137;28;20471;-66
2021/08/27 05:49:24;;;;;;;8.13;7.33;;;15.50;99.90;;;;;;6350588;28;20467;-66
2021/08/27 05:52:28;;;;;;;8.73;7.83;;;15.80;99.90;;;;;;6350917;28;20524;-66
2021/08/27 05:55:31;;;;;;;8.43;7.60;;;16.10;99.90;;;;;;6350487;28;20467;-66
2021/08/27 05:58:35;;;;;;;8.60;7.03;;;16.80;99.90;;;;;;6350624;28;20493;-66
2021/08/27 06:01:39;;;;;;;9.87;7.10;;;17.30;99.90;;;;;;6350751;28;20467;-66
2021/08/27 06:04:42;;;;;;;11.73;7.10;;;18.10;99.90;;;;;;6350707;28;20493;-66
2021/08/27 06:07:45;;;;;;;9.57;7.63;;;18.80;99.90;;;;;;6350377;28;20478;-67
2021/08/27 06:10:48;;;;;;;8.90;8.00;;;19.10;99.10;;;;;;6350088;28;20516;-67
2021/08/27 06:13:53;;;;;;;7.50;6.63;;;19.10;98.40;;;;;;6350164;28;20486;-66
2021/08/27 06:16:56;;;;;;;8.00;6.90;;;19.20;98.60;;;;;;6349554;28;20837;-67
2021/08/27 06:19:59;;;;;;;10.17;6.73;;;19.80;98.50;;;;;;6350181;28;20229;-67
2021/08/27 06:23:02;;;;;;;7.60;6.87;;;20.60;96.70;;;;;;6349688;28;20281;-67
2021/08/27 06:26:05;;;;;;;6.70;6.20;;;21.50;93.90;;;;;;6349951;28;20302;-67
2021/08/27 06:29:10;;;;;;;7.40;5.60;;;22.50;92.60;;;;;;6349018;28;20241;-66
2021/08/27 06:32:14;;;;;;;5.83;5.07;;;23.30;90.30;;;;;;6349836;28;20287;-66
2021/08/27 06:35:17;;;;;;;6.20;5.60;;;23.60;87.80;;;;;;6349392;28;20228;-67
2021/08/27 06:38:24;;;;;;;5.73;5.23;;;24.10;85.30;;;;;;6349742;28;20233;-67
2021/08/27 06:41:32;;;;;;;5.67;4.90;;;24.90;82.50;;;;;;6340552;28;20237;-67
2021/08/27 06:44:37;;;;;;;8.27;5.10;;;25.70;78.90;;;;;;6349636;27;20566;-67
2021/08/27 06:47:40;;;;;;;5.40;5.00;;;26.50;74.60;;;;;;6349368;28;20240;-67
2021/08/27 06:50:43;;;;;;;5.90;5.30;;;27.30;69.20;;;;;;6349512;28;20225;-66
2021/08/27 06:53:47;;;;;;;5.87;5.20;;;28.10;66.30;;;;;;6349433;28;20272;-67
2021/08/27 06:56:50;;;;;;;6.63;5.03;;;28.20;63.10;;;;;;6349328;28;20217;-66
2021/08/27 06:59:54;;;;;;;8.03;5.27;;;27.80;63.30;;;;;;6349414;28;20247;-66
2021/08/27 07:02:58;;;;;;;5.83;5.40;;;28.00;62.00;;;;;;6349111;28;20205;-66
2021/08/27 07:06:02;;;;;;;4.87;4.47;;;28.20;60.80;;;;;;6349746;28;20228;-69
2021/08/27 07:09:05;;;;;;;5.80;4.87;;;28.30;59.30;;;;;;6348826;28;20228;-66
2021/08/27 07:12:11;;;;;;;5.70;5.10;;;29.20;58.40;;;;;;6349455;28;20224;-68
2021/08/27 07:15:16;;;;;;;4.97;4.47;;;29.50;56.40;;;;;;6348930;28;20235;-66
2021/08/27 07:18:19;;;;;;;4.40;4.00;;;30.30;55.00;;;;;;6349516;28;20228;-66
2021/08/27 07:21:22;;;;;;;6.53;4.90;;;30.10;53.30;;;;;;6348955;28;20289;-66
2021/08/27 07:24:26;;;;;;;6.10;4.80;;;29.50;53.60;;;;;;6349504;28;20216;-67
2021/08/27 07:27:29;;;;;;;5.03;4.60;;;29.00;54.90;;;;;;6348905;28;20235;-67
2021/08/27 07:30:33;;;;;;;7.00;5.30;;;29.00;55.30;;;;;;6349113;28;20424;-67
2021/08/27 07:33:36;;;;;;;5.00;4.50;;;28.90;55.40;;;;;;6348950;28;20225;-67
2021/08/27 07:36:41;;;;;;;6.47;5.87;;;28.40;56.30;;;;;;6348768;28;20562;-67
2021/08/27 07:39:44;;;;;;;5.83;5.33;;;28.00;57.00;;;;;;6351031;27;20689;-67
2021/08/27 07:42:47;;;;;;;5.03;4.63;;;27.50;57.80;;;;;;6349198;27;20689;-67
2021/08/27 07:45:57;;;;;;;5.63;4.93;;;27.40;58.00;;;;;;6354098;28;20233;-67
2021/08/27 07:49:00;;;;;;;6.47;5.40;;;27.00;58.70;;;;;;6353520;28;20241;-67
2021/08/27 07:52:04;;;;;;;5.63;5.13;;;26.30;59.60;;;;;;6353836;27;20234;-67
2021/08/27 07:55:08;;;;;;;5.63;5.07;;;25.70;60.80;;;;;;6353179;28;20227;-67
2021/08/27 07:58:11;;;;;;;5.50;5.00;;;25.20;62.20;;;;;;6353473;28;20233;-67
2021/08/27 08:01:16;;;;;;;5.90;5.03;;;25.20;62.60;;;;;;6352885;28;20241;-67
2021/08/27 08:04:19;;;;;;;7.37;6.60;;;25.20;62.90;;;;;;6353564;28;20287;-67
2021/08/27 08:07:22;;;;;;;6.13;5.33;;;25.40;63.00;;;;;;6353043;28;20233;-67
2021/08/27 08:10:26;;;;;;;5.53;5.03;;;25.20;63.20;;;;;;6353352;28;20225;-66
2021/08/27 08:13:29;;;;;;;5.27;4.70;;;25.10;63.90;;;;;;6352884;28;20540;-66
2021/08/27 08:16:33;;;;;;;6.03;5.43;;;24.90;63.60;;;;;;6352836;28;20282;-67
2021/08/27 08:19:36;;;;;;;6.17;5.20;;;24.40;64.80;;;;;;6352866;27;20237;-67
2021/08/27 08:22:39;;;;;;;6.23;5.63;;;23.80;66.50;;;;;;6352843;28;20228;-67
2021/08/27 08:25:43;;;;;;;5.20;4.73;;;23.90;66.60;;;;;;6352824;27;20252;-67
2021/08/27 08:28:46;;;;;;;5.20;4.70;;;24.40;65.60;;;;;;6352821;28;20241;-67
2021/08/27 08:31:52;;;;;;;4.87;4.47;;;24.60;65.50;;;;;;6352627;28;20221;-67
2021/08/27 08:34:55;;;;;;;5.30;4.83;;;25.10;65.50;;;;;;6352731;28;20225;-67
2021/08/27 08:37:59;;;;;;;4.30;3.90;;;26.50;62.40;;;;;;6335767;28;20236;-67
2021/08/27 08:41:04;;;;;;;4.40;4.00;;;29.00;57.80;;;;;;6338064;28;20229;-68
2021/08/27 08:44:07;;;;;;;5.17;4.20;;;31.30;51.10;;;;;;6339511;28;20654;-67
2021/08/27 08:47:13;;;;;;;6.00;4.17;;;31.80;48.50;;;;;;6339647;28;20228;-68
2021/08/27 08:50:17;;;;;;;4.97;4.57;;;31.40;48.70;;;;;;6325911;28;20240;-70
2021/08/27 08:53:22;;;;;;;8.35;6.32;;;32.30;47.20;;;;;;6339959;28;20226;-70
2021/08/27 08:56:25;;;;;;;6.00;5.35;;;32.20;47.40;;;;;;6340392;28;20233;-70
2021/08/27 08:59:29;;;;;;;5.72;5.22;;;32.20;47.00;;;;;;6337979;27;20670;-70
2021/08/27 09:02:34;;;;;;;6.07;5.57;;;32.40;47.10;;;;;;6339420;28;20228;-70
2021/08/27 09:05:41;;;;;;;6.00;5.43;;;32.80;45.50;;;;;;6334849;28;20232;-71
2021/08/27 09:08:48;;;;;;;5.60;5.07;;;32.70;46.30;;;;;;6340270;28;20237;-69
2021/08/27 09:11:51;;;;;;;5.18;4.60;;;32.50;45.30;;;;;;6337193;28;20331;-69
2021/08/27 09:15:01;;;;;;;4.47;3.42;;;32.40;46.30;;;;;;6337327;28;20193;-70
2021/08/27 09:18:10;;;;;;;2.30;2.10;;;34.20;42.70;;;;;;6336821;28;20232;-72
2021/08/27 09:21:30;;;;;;;2.10;1.90;;;33.40;38.10;;;;;;6335133;28;20232;-70
2021/08/27 09:24:38;;;;;;;1.80;1.40;;;32.00;39.50;;;;;;6327853;28;20251;-71
2021/08/27 09:28:02;;;;;;;1.88;1.77;;;31.80;39.10;;;;;;6326942;28;20244;-70
2021/08/27 09:31:05;;;;;;;1.55;1.30;;;33.10;38.00;;;;;;6326045;28;20233;-71
2021/08/27 09:34:10;;;;;;;1.50;1.30;;;34.40;35.60;;;;;;6325918;28;20226;-71
2021/08/27 09:37:13;;;;;;;1.73;1.63;;;34.00;35.60;;;;;;6325148;28;20229;-70
2021/08/27 09:40:18;;;;;;;1.40;1.08;;;33.10;36.00;;;;;;6326170;28;20283;-70
2021/08/27 09:43:26;;;;;;;2.55;1.27;;;31.90;36.80;;;;;;6325584;28;20222;-71
2021/08/27 09:46:34;;;;;;;1.98;1.50;;;31.00;37.80;;;;;;6325492;28;20689;-70
2021/08/27 09:49:39;;;;;;;2.40;1.30;;;30.20;39.50;;;;;;6325550;28;20238;-68
2021/08/27 09:52:42;;;;;;;2.00;1.80;;;29.40;41.50;;;;;;6316378;28;20240;-69
2021/08/27 09:55:57;;;;;;;2.03;1.40;;;29.30;42.40;;;;;;6338801;28;20696;-71
2021/08/27 09:59:00;;;;;;;1.67;1.43;;;29.20;40.10;;;;;;6350457;28;20237;-68
2021/08/27 10:02:05;;;;;;;1.67;1.20;;;29.10;41.60;;;;;;6332244;28;20212;-68
2021/08/27 10:05:11;;;;;;;2.27;2.07;;;28.80;41.30;;;;;;6334965;28;20245;-69
2021/08/27 10:08:16;;;;;;;2.40;2.20;;;28.40;46.10;;;;;;6348139;28;20244;-66
2021/08/27 10:11:21;;;;;;;1.50;1.40;;;27.80;49.40;;;;;;6332035;28;20221;-65
2021/08/27 10:14:25;;;;;;;1.40;1.00;;;27.90;46.50;;;;;;6323518;28;20308;-69
2021/08/27 10:17:28;;;;;;;0.93;0.80;;;28.10;43.10;;;;;;6324288;28;20679;-69
2021/08/27 10:20:33;;;;;;;1.10;0.70;;;28.00;41.50;;;;;;6305374;28;20671;-68
2021/08/27 10:23:37;;;;;;;2.13;1.93;;;27.70;41.50;;;;;;6300332;28;20551;-65
2021/08/27 10:26:41;;;;;;;2.83;2.07;;;26.50;49.90;;;;;;6317147;28;20230;-65
2021/08/27 10:29:50;;;;;;;3.17;2.40;;;26.10;51.50;;;;;;6330416;28;20233;-64
2021/08/27 10:32:53;;;;;;;2.80;1.63;;;26.00;52.00;;;;;;6335479;28;20572;-64
2021/08/27 10:35:58;;;;;;;2.10;1.90;;;25.70;52.10;;;;;;6334699;28;20185;-65
2021/08/27 10:39:03;;;;;;;2.20;1.27;;;25.40;52.30;;;;;;6343863;28;20224;-61
2021/08/27 10:42:07;;;;;;;1.10;0.87;;;25.20;50.40;;;;;;6335082;28;20245;-62
2021/08/27 10:45:11;;;;;;;1.93;1.17;;;24.80;49.60;;;;;;6323319;28;20226;-64
2021/08/27 10:48:15;;;;;;;1.43;1.20;;;24.60;49.30;;;;;;6324879;28;20238;-65
2021/08/27 10:51:37;;;;;;;1.30;1.10;;;24.60;49.60;;;;;;6326226;28;20721;-65
2021/08/27 10:55:06;;;;;;;1.00;0.90;;;24.70;48.80;;;;;;6332492;28;20533;-66
2021/08/27 10:58:14;;;;;;;0.90;0.70;;;24.70;48.10;;;;;;6331747;28;20237;-66
2021/08/27 11:01:32;;;;;;;1.37;0.93;;;24.80;48.60;;;;;;6335975;28;20221;-66
2021/08/27 11:04:42;;;;;;;2.60;0.60;;;25.10;46.70;;;;;;6334948;28;20221;-66
2021/08/27 11:07:46;;;;;;;0.90;0.60;;;25.20;46.00;;;;;;6335097;28;20233;-66
2021/08/27 11:11:20;;;;;;;0.80;0.50;;;25.30;45.50;;;;;;6325539;28;20226;-66
2021/08/27 11:14:23;;;;;;;1.80;0.90;;;25.30;47.00;;;;;;6334275;28;20549;-66
2021/08/27 11:17:27;;;;;;;0.80;0.60;;;25.60;47.10;;;;;;6340322;28;20711;-66
2021/08/27 11:20:30;;;;;;;1.00;0.53;;;25.80;45.80;;;;;;6336078;28;20797;-66
2021/08/27 11:23:53;;;;;;;0.80;0.70;;;25.70;45.60;;;;;;6338146;28;20229;-67
2021/08/27 11:27:02;;;;;;;1.10;1.00;;;25.60;45.60;;;;;;6340201;28;20561;-68
2021/08/27 11:30:31;;;;;;;0.87;0.70;;;25.10;46.30;;;;;;6351361;28;20225;-69
2021/08/27 11:34:01;;;;;;;1.00;0.70;;;24.70;47.20;;;;;;6352095;28;20222;-67
2021/08/27 11:37:05;;;;;;;1.20;0.70;;;24.70;47.10;;;;;;6341461;27;20283;-63
2021/08/27 11:40:13;;;;;;;1.03;0.80;;;24.60;47.50;;;;;;6326112;28;20245;-66
2021/08/27 11:43:16;;;;;;;0.90;0.80;;;24.70;47.70;;;;;;6346913;28;20627;-64
2021/08/27 11:46:24;;;;;;;0.80;0.53;;;24.70;47.90;;;;;;6344228;28;20225;-63
2021/08/27 11:49:34;;;;;;;0.93;0.80;;;24.70;48.00;;;;;;6335622;28;20260;-63
2021/08/27 11:52:38;;;;;;;1.00;0.70;;;24.60;48.10;;;;;;6338363;28;20233;-63
2021/08/27 11:55:44;;;;;;;2.00;1.00;;;24.50;48.10;;;;;;6338410;27;20228;-63
2021/08/27 11:58:47;;;;;;;0.80;0.63;;;24.40;48.80;;;;;;6336230;28;20241;-59
2021/08/27 12:01:51;;;;;;;1.13;0.67;;;24.40;47.90;;;;;;6325994;28;20245;-64
2021/08/27 12:04:59;;;;;;;0.83;0.70;;;24.60;48.30;;;;;;6325508;28;20593;-62
2021/08/27 12:08:03;;;;;;;1.17;0.70;;;24.60;48.80;;;;;;6327302;28;20244;-62
2021/08/27 12:11:08;;;;;;;1.10;0.57;;;24.70;48.20;;;;;;6336291;28;20229;-61
2021/08/27 12:14:11;;;;;;;1.00;0.50;;;24.80;47.90;;;;;;6326099;28;20217;-61
2021/08/27 12:17:18;;;;;;;1.10;0.97;;;25.00;48.00;;;;;;6334034;28;20237;-61
2021/08/27 12:20:23;;;;;;;1.27;0.70;;;25.00;48.10;;;;;;6337148;28;20274;-62
2021/08/27 12:23:26;;;;;;;0.70;0.53;;;25.00;48.40;;;;;;6337568;28;20225;-62
2021/08/27 12:26:32;;;;;;;0.97;0.57;;;25.10;48.00;;;;;;6335554;28;20238;-62
2021/08/27 12:29:36;;;;;;;0.90;0.70;;;25.00;47.40;;;;;;6333340;28;20267;-63
2021/08/27 12:32:50;;;;;;;0.70;0.57;;;24.70;47.90;;;;;;6333661;28;20229;-61
2021/08/27 12:36:12;;;;;;;1.33;0.93;;;24.60;48.20;;;;;;6335792;28;20225;-60
2021/08/27 12:39:17;;;;;;;1.63;0.90;;;24.50;49.70;;;;;;6338835;28;20249;-63
2021/08/27 12:42:22;;;;;;;1.43;1.03;;;24.40;48.90;;;;;;6350220;27;20599;-60
2021/08/27 12:45:26;;;;;;;2.17;1.20;;;24.40;51.60;;;;;;6350086;28;20555;-62
2021/08/27 12:48:30;;;;;;;1.20;1.00;;;24.40;51.60;;;;;;6349972;28;20240;-62
2021/08/27 12:51:34;;;;;;;1.80;0.80;;;24.60;51.70;;;;;;6350037;28;20229;-60
2021/08/27 12:54:40;;;;;;;0.97;0.67;;;24.80;50.70;;;;;;6318287;28;20695;-61
2021/08/27 12:57:49;;;;;;;1.00;0.90;;;24.90;48.40;;;;;;6299103;28;20227;-60
2021/08/27 13:01:12;;;;;;;0.97;0.70;;;24.70;48.20;;;;;;6299268;28;20603;-61
2021/08/27 13:04:21;;;;;;;1.60;1.20;;;24.40;48.60;;;;;;6307786;28;20242;-59
2021/08/27 13:07:25;;;;;;;1.43;1.33;;;24.30;50.70;;;;;;6326814;28;20683;-62
2021/08/27 13:10:29;;;;;;;2.20;1.20;;;24.20;51.10;;;;;;6333312;28;20218;-61
2021/08/27 13:13:36;;;;;;;1.47;0.97;;;24.10;51.30;;;;;;6342088;28;20222;-63
2021/08/27 13:16:40;;;;;;;1.20;0.90;;;23.70;51.00;;;;;;6334458;28;20230;-63
2021/08/27 13:19:54;;;;;;;0.93;0.80;;;23.30;53.10;;;;;;6349467;28;20241;-61
2021/08/27 13:23:15;;;;;;;1.20;0.90;;;23.10;53.50;;;;;;6345946;28;20664;-60
2021/08/27 13:26:23;;;;;;;1.20;1.10;;;22.90;54.60;;;;;;6330699;28;20226;-59
2021/08/27 13:29:28;;;;;;;1.30;1.10;;;22.60;54.70;;;;;;6332918;28;20233;-60
2021/08/27 13:32:41;;;;;;;1.60;1.40;;;22.60;54.20;;;;;;6324962;28;20710;-60
2021/08/27 13:35:45;;;;;;;1.50;1.03;;;22.70;56.10;;;;;;6323389;28;20242;-63
2021/08/27 13:38:48;;;;;;;2.03;1.60;;;22.70;56.60;;;;;;6326022;28;20214;-61
2021/08/27 13:41:52;;;;;;;1.63;1.40;;;22.80;56.90;;;;;;6331799;28;20213;-61
2021/08/27 13:44:56;;;;;;;2.00;1.53;;;22.80;58.10;;;;;;6334962;28;20194;-61
2021/08/27 13:48:00;;;;;;;2.07;1.87;;;22.60;57.60;;;;;;6335003;28;20226;-61
2021/08/27 13:51:03;;;;;;;1.93;1.70;;;22.50;57.90;;;;;;6336267;28;20205;-62
2021/08/27 13:54:06;;;;;;;2.30;1.80;;;22.50;57.40;;;;;;6335624;28;20631;-61
2021/08/27 13:57:09;;;;;;;2.30;1.70;;;22.40;57.40;;;;;;6334360;28;20601;-60
2021/08/27 14:00:16;;;;;;;1.83;1.63;;;22.30;58.20;;;;;;6338199;28;20224;-61
2021/08/27 14:03:19;;;;;;;2.80;1.70;;;22.10;58.00;;;;;;6323279;28;20226;-63
2021/08/27 14:06:23;;;;;;;1.70;1.60;;;22.00;58.00;;;;;;6326334;28;20225;-62
2021/08/27 14:09:26;;;;;;;1.90;1.70;;;22.00;58.90;;;;;;6336498;28;20229;-62
2021/08/27 14:12:29;;;;;;;2.10;1.90;;;22.00;58.20;;;;;;6335664;28;20279;-62
2021/08/27 14:15:34;;;;;;;2.10;1.90;;;21.80;59.10;;;;;;6334132;28;20355;-67
2021/08/27 14:18:37;;;;;;;3.60;1.50;;;21.80;58.30;;;;;;6333917;28;20217;-67
2021/08/27 14:21:40;;;;;;;1.93;1.53;;;21.70;58.50;;;;;;6334331;28;20275;-64
2021/08/27 14:24:44;;;;;;;2.23;1.70;;;21.70;59.50;;;;;;6334906;28;20235;-63
2021/08/27 14:27:47;;;;;;;2.53;2.10;;;21.60;60.60;;;;;;6320747;28;20241;-68
2021/08/27 14:30:53;;;;;;;1.97;1.63;;;21.60;61.30;;;;;;6304531;28;20233;-67
2021/08/27 14:33:58;;;;;;;2.07;1.60;;;21.60;60.20;;;;;;6318463;28;20226;-67
2021/08/27 14:37:01;;;;;;;2.40;2.00;;;21.70;60.70;;;;;;6341556;28;20233;-68
2021/08/27 14:40:06;;;;;;;2.03;1.60;;;21.80;60.30;;;;;;6347512;28;20592;-66
2021/08/27 14:43:10;;;;;;;2.57;1.80;;;21.90;59.70;;;;;;6345127;28;20230;-66
2021/08/27 14:46:14;;;;;;;4.43;1.93;;;21.90;60.10;;;;;;6342479;28;20229;-67
2021/08/27 14:49:17;;;;;;;2.00;1.90;;;22.00;61.00;;;;;;6347256;28;20247;-66
2021/08/27 14:52:21;;;;;;;3.20;1.77;;;22.10;61.00;;;;;;6335873;28;20237;-63
2021/08/27 14:55:24;;;;;;;2.60;2.10;;;22.40;60.00;;;;;;6321052;28;20234;-62
2021/08/27 14:58:27;;;;;;;2.10;1.90;;;22.50;58.70;;;;;;6296023;28;20232;-66
2021/08/27 15:01:32;;;;;;;2.90;2.43;;;22.40;60.40;;;;;;6303959;28;20226;-67
2021/08/27 15:04:35;;;;;;;4.47;2.60;;;22.20;61.90;;;;;;6311677;28;20222;-67
2021/08/27 15:07:39;;;;;;;2.00;1.77;;;22.20;62.20;;;;;;6329980;28;20668;-66
2021/08/27 15:10:42;;;;;;;1.77;1.67;;;22.00;61.70;;;;;;6313593;28;20215;-66
2021/08/27 15:13:45;;;;;;;2.30;2.10;;;21.90;62.00;;;;;;6312727;28;20230;-66
2021/08/27 15:16:49;;;;;;;2.67;2.23;;;22.00;61.30;;;;;;6310162;28;20230;-66
2021/08/27 15:19:53;;;;;;;2.73;1.93;;;22.30;62.30;;;;;;6315704;28;20585;-67
2021/08/27 15:22:56;;;;;;;2.50;2.20;;;22.40;63.10;;;;;;6317665;28;20605;-66
2021/08/27 15:25:59;;;;;;;2.00;1.90;;;22.50;61.90;;;;;;6316680;28;20237;-66
2021/08/27 15:29:03;;;;;;;2.20;2.00;;;22.30;61.80;;;;;;6306395;28;20223;-66
2021/08/27 15:32:09;;;;;;;2.80;2.23;;;22.20;63.40;;;;;;6312452;28;20233;-67
2021/08/27 15:35:12;;;;;;;2.40;2.20;;;22.00;64.80;;;;;;6318007;28;20221;-67
2021/08/27 15:38:17;;;;;;;2.30;2.10;;;22.00;65.60;;;;;;6316259;28;20317;-66
2021/08/27 15:41:20;;;;;;;2.10;1.87;;;22.00;65.80;;;;;;6311708;28;20241;-67
2021/08/27 15:44:25;;;;;;;2.40;2.20;;;22.00;65.50;;;;;;6304171;28;20226;-66
2021/08/27 15:47:30;;;;;;;2.27;2.07;;;21.90;65.40;;;;;;6304618;28;20594;-65
2021/08/27 15:50:34;;;;;;;2.70;2.37;;;21.80;65.30;;;;;;6304326;28;20222;-64
2021/08/27 15:53:37;;;;;;;1.90;1.43;;;21.60;65.10;;;;;;6303975;28;20668;-68
2021/08/27 15:56:40;;;;;;;3.17;2.60;;;21.50;65.40;;;;;;6311315;28;20243;-64
2021/08/27 15:59:43;;;;;;;2.80;1.90;;;21.50;65.70;;;;;;6312068;28;20239;-65
2021/08/27 16:02:48;;;;;;;1.57;1.47;;;21.40;64.90;;;;;;6319698;28;20229;-65